Time;durP1;ratioP1;P1;durP2;ratioP2;P2;SDS_P1;SDS_P2;PMS_P1;PMS_P2;Temp;Humidity;BMP_temperature;BMP_pressure;BME280_temperature;BME280_humidity;BME280_pressure;Samples;Min_cycle;Max_cycle;Signal;HPM_P1;HPM_P2
2022/05/09 00:00:07;;;;;;;20.38;17.50;;;10.30;99.90;;;;;;5052074;28;20030;-80
2022/05/09 00:02:33;;;;;;;18.58;15.40;;;10.30;99.90;;;;;;5051980;28;20076;-80
2022/05/09 00:04:58;;;;;;;19.35;15.68;;;10.30;99.90;;;;;;5052040;28;20025;-80
2022/05/09 00:07:24;;;;;;;20.23;16.40;;;10.30;99.90;;;;;;5052732;28;20478;-80
2022/05/09 00:09:50;;;;;;;20.83;16.92;;;10.20;99.90;;;;;;5052016;28;20036;-80
2022/05/09 00:12:16;;;;;;;18.50;16.30;;;10.20;99.90;;;;;;5052201;28;20815;-80
2022/05/09 00:14:42;;;;;;;21.35;17.13;;;10.20;99.90;;;;;;5052790;28;20051;-80
2022/05/09 00:17:08;;;;;;;18.02;15.27;;;10.20;99.90;;;;;;5063186;28;20017;-80
2022/05/09 00:19:33;;;;;;;20.00;16.50;;;10.10;99.90;;;;;;5057955;28;20424;-80
2022/05/09 00:21:59;;;;;;;21.45;16.65;;;10.10;99.90;;;;;;5056954;28;20028;-80
2022/05/09 00:24:25;;;;;;;21.15;16.77;;;10.10;99.90;;;;;;5074651;28;20032;-80
2022/05/09 00:26:51;;;;;;;18.02;15.82;;;10.00;99.90;;;;;;5056227;28;20119;-80
2022/05/09 00:29:20;;;;;;;18.30;15.38;;;10.00;99.90;;;;;;5074452;28;20035;-80
2022/05/09 00:31:50;;;;;;;21.98;15.82;;;10.00;99.90;;;;;;5075342;28;20542;-80
2022/05/09 00:34:19;;;;;;;21.67;16.67;;;10.00;99.90;;;;;;5075667;28;20012;-80
2022/05/09 00:36:46;;;;;;;22.47;16.40;;;9.90;99.90;;;;;;5057190;28;20530;-80
2022/05/09 00:39:12;;;;;;;17.42;14.80;;;9.90;99.90;;;;;;5075063;28;20025;-80
2022/05/09 00:41:39;;;;;;;19.55;15.15;;;9.90;99.90;;;;;;5074917;28;20048;-80
2022/05/09 00:44:17;;;;;;;17.47;14.87;;;9.80;99.90;;;;;;5057282;28;20078;-80
2022/05/09 00:46:46;;;;;;;20.23;15.02;;;9.80;99.90;;;;;;5074863;28;20050;-80
2022/05/09 00:49:29;;;;;;;17.15;14.15;;;9.80;99.90;;;;;;5074841;28;20055;-80
2022/05/09 00:52:10;;;;;;;17.60;13.67;;;9.70;99.90;;;;;;5074988;28;20044;-80
2022/05/09 00:54:43;;;;;;;19.23;15.20;;;9.70;99.90;;;;;;5074609;28;20025;-80
2022/05/09 00:57:22;;;;;;;20.77;14.83;;;9.70;99.90;;;;;;5067950;28;20343;-80
2022/05/09 00:59:52;;;;;;;15.60;14.00;;;9.70;99.90;;;;;;5054938;28;20017;-79
2022/05/09 01:02:19;;;;;;;17.50;14.60;;;9.60;99.90;;;;;;5054794;28;20138;-80
2022/05/09 01:05:00;;;;;;;17.58;15.50;;;9.60;99.90;;;;;;5036880;28;20028;-80
2022/05/09 01:07:27;;;;;;;19.23;14.63;;;9.60;99.90;;;;;;5054527;28;20109;-80
2022/05/09 01:09:52;;;;;;;21.97;15.23;;;9.60;99.90;;;;;;5054963;28;20028;-80
2022/05/09 01:12:23;;;;;;;18.90;14.50;;;9.60;99.90;;;;;;5054648;28;20369;-80
2022/05/09 01:14:49;;;;;;;17.27;15.43;;;9.60;99.90;;;;;;5036676;28;20036;-80
2022/05/09 01:17:15;;;;;;;18.33;14.93;;;9.60;99.90;;;;;;5054751;28;20025;-80
2022/05/09 01:19:47;;;;;;;18.23;13.83;;;9.70;99.90;;;;;;5036740;28;20401;-80
2022/05/09 01:22:26;;;;;;;16.77;14.70;;;9.60;99.90;;;;;;5054454;28;20466;-80
2022/05/09 01:24:55;;;;;;;17.23;15.33;;;9.60;99.90;;;;;;5054375;28;20082;-79
2022/05/09 01:27:21;;;;;;;18.40;14.03;;;9.60;99.90;;;;;;5048791;28;20169;-80
2022/05/09 01:30:00;;;;;;;20.27;14.68;;;9.50;99.90;;;;;;5074081;28;20029;-80
2022/05/09 01:32:35;;;;;;;21.33;15.17;;;9.60;99.90;;;;;;5056174;28;20040;-80
2022/05/09 01:35:07;;;;;;;23.45;14.00;;;9.50;99.90;;;;;;5074233;28;20022;-80
2022/05/09 01:37:34;;;;;;;19.33;15.43;;;9.50;99.90;;;;;;5074464;28;20033;-79
2022/05/09 01:40:00;;;;;;;19.83;14.33;;;9.50;99.90;;;;;;5074491;28;20027;-80
2022/05/09 01:42:26;;;;;;;17.73;15.17;;;9.40;99.90;;;;;;5074500;28;20029;-80
2022/05/09 01:44:52;;;;;;;16.17;14.40;;;9.40;99.90;;;;;;5074327;28;20112;-80
2022/05/09 01:50:02;;;;;;;17.13;15.13;;;9.40;99.90;;;;;;5073791;28;20043;-80
2022/05/09 01:52:28;;;;;;;18.83;14.30;;;9.30;99.90;;;;;;5074301;28;20033;-80
2022/05/09 01:54:53;;;;;;;18.77;14.43;;;9.30;99.90;;;;;;5067460;28;20438;-80
2022/05/09 01:57:19;;;;;;;19.57;15.27;;;9.30;99.90;;;;;;5035882;28;20028;-80
2022/05/09 01:59:45;;;;;;;17.27;15.47;;;9.20;99.90;;;;;;5035745;28;20095;-79
2022/05/09 02:02:17;;;;;;;20.57;16.83;;;9.20;99.90;;;;;;5053804;28;20763;-79
2022/05/09 02:04:43;;;;;;;16.53;14.40;;;9.20;99.90;;;;;;5053539;28;20021;-80
2022/05/09 02:07:11;;;;;;;16.70;14.40;;;9.20;99.90;;;;;;5071525;28;20024;-81
2022/05/09 02:09:45;;;;;;;22.97;15.73;;;9.20;99.90;;;;;;5073106;28;20150;-80
2022/05/09 02:12:12;;;;;;;20.60;15.87;;;9.10;99.90;;;;;;5073116;28;20035;-80
2022/05/09 02:14:38;;;;;;;21.27;16.17;;;9.10;99.90;;;;;;5073241;28;20562;-80
2022/05/09 02:17:05;;;;;;;20.27;16.50;;;9.10;99.90;;;;;;5073102;28;20473;-80
2022/05/09 02:19:31;;;;;;;20.17;16.13;;;9.10;99.90;;;;;;5058449;28;20035;-80
2022/05/09 02:21:57;;;;;;;19.03;15.73;;;9.00;99.90;;;;;;5035334;28;20021;-80
2022/05/09 02:24:23;;;;;;;19.53;14.83;;;9.00;99.90;;;;;;5053258;28;20803;-80
2022/05/09 02:26:49;;;;;;;20.30;15.80;;;9.00;99.90;;;;;;5052978;28;20469;-80
2022/05/09 02:29:14;;;;;;;18.27;14.77;;;8.90;99.90;;;;;;5052797;28;20029;-80
2022/05/09 02:31:40;;;;;;;25.33;15.63;;;8.90;99.90;;;;;;5062105;28;20037;-85
2022/05/09 02:34:08;;;;;;;18.27;14.80;;;8.90;99.90;;;;;;5059868;28;20485;-85
2022/05/09 02:36:34;;;;;;;21.07;16.17;;;8.90;99.90;;;;;;5035130;28;20481;-85
2022/05/09 02:38:59;;;;;;;21.80;15.67;;;8.90;99.90;;;;;;5052806;28;20051;-85
2022/05/09 02:41:25;;;;;;;20.73;17.07;;;8.80;99.90;;;;;;5035072;28;20029;-85
2022/05/09 02:43:51;;;;;;;23.93;17.10;;;8.80;99.90;;;;;;5053197;28;20025;-85
2022/05/09 02:46:24;;;;;;;20.87;16.57;;;8.80;99.90;;;;;;5053191;28;20064;-85
2022/05/09 02:48:49;;;;;;;22.97;17.97;;;8.80;99.90;;;;;;5053166;28;20104;-85
2022/05/09 02:51:15;;;;;;;22.73;16.90;;;8.80;99.90;;;;;;5052956;28;20128;-85
2022/05/09 02:53:41;;;;;;;20.37;16.47;;;8.80;99.90;;;;;;5066522;28;20405;-85
2022/05/09 02:56:07;;;;;;;16.33;14.30;;;8.80;99.90;;;;;;5065526;28;20032;-85
2022/05/09 02:58:33;;;;;;;20.43;15.13;;;8.70;99.90;;;;;;5053194;28;20029;-85
2022/05/09 03:01:01;;;;;;;16.43;13.97;;;8.70;99.90;;;;;;5069755;28;20028;-85
2022/05/09 03:06:12;;;;;;;14.70;12.37;;;8.60;99.90;;;;;;5052226;28;20120;-79
2022/05/09 03:08:40;;;;;;;13.83;11.87;;;8.60;99.90;;;;;;5052225;28;20430;-79
2022/05/09 03:11:05;;;;;;;15.17;12.10;;;8.50;99.90;;;;;;5064079;28;20408;-79
2022/05/09 03:13:31;;;;;;;14.67;11.90;;;8.50;99.90;;;;;;5071965;28;20063;-79
2022/05/09 03:15:58;;;;;;;16.77;13.17;;;8.50;99.90;;;;;;5072245;28;20480;-79
2022/05/09 03:18:25;;;;;;;16.87;12.10;;;8.40;99.90;;;;;;5071918;28;20055;-79
2022/05/09 03:20:51;;;;;;;15.70;12.40;;;8.40;99.90;;;;;;5071979;28;20512;-79
2022/05/09 03:23:17;;;;;;;17.07;12.37;;;8.40;99.90;;;;;;5071919;28;20080;-79
2022/05/09 03:25:43;;;;;;;19.17;11.80;;;8.30;99.90;;;;;;5053939;28;20029;-79
2022/05/09 03:28:12;;;;;;;13.37;11.97;;;8.30;99.90;;;;;;5071959;28;20030;-79
2022/05/09 03:30:39;;;;;;;14.70;12.47;;;8.30;99.90;;;;;;5054049;28;20017;-79
2022/05/09 03:33:06;;;;;;;16.43;13.20;;;8.30;99.90;;;;;;5054115;28;20120;-79
2022/05/09 03:35:33;;;;;;;17.40;14.00;;;8.30;99.90;;;;;;5072191;28;20017;-79
2022/05/09 03:37:59;;;;;;;17.30;13.30;;;8.20;99.90;;;;;;5071592;28;20036;-79
2022/05/09 03:40:24;;;;;;;17.60;13.87;;;8.20;99.90;;;;;;5053752;28;20028;-79
2022/05/09 03:42:50;;;;;;;16.77;13.87;;;8.20;99.90;;;;;;5071137;28;20024;-79
2022/05/09 03:45:17;;;;;;;16.70;13.43;;;8.20;99.90;;;;;;5053504;28;20116;-79
2022/05/09 03:47:43;;;;;;;15.20;13.53;;;8.20;99.90;;;;;;5053793;28;20040;-79
2022/05/09 03:50:11;;;;;;;19.13;14.03;;;8.20;99.90;;;;;;5072626;28;20045;-79
2022/05/09 03:52:37;;;;;;;16.43;13.77;;;8.20;99.90;;;;;;5057099;28;20059;-79
2022/05/09 03:55:03;;;;;;;16.80;14.50;;;8.20;99.90;;;;;;5049768;28;20497;-80
2022/05/09 03:57:28;;;;;;;16.90;13.43;;;8.20;99.90;;;;;;5065231;28;20070;-79
2022/05/09 03:59:54;;;;;;;18.00;13.93;;;8.20;99.90;;;;;;5075514;28;20028;-79
2022/05/09 04:02:19;;;;;;;18.87;14.00;;;8.20;99.90;;;;;;5075403;28;20029;-79
2022/05/09 04:04:45;;;;;;;18.13;13.97;;;8.20;99.90;;;;;;5075414;28;20052;-79
2022/05/09 04:07:11;;;;;;;19.93;14.73;;;8.20;99.90;;;;;;5075130;28;20029;-79
2022/05/09 04:09:36;;;;;;;16.63;12.47;;;8.20;99.90;;;;;;5056948;28;20029;-79
2022/05/09 04:12:02;;;;;;;18.53;11.53;;;8.20;99.90;;;;;;5072107;28;20060;-79
2022/05/09 04:17:14;;;;;;;12.73;10.77;;;8.10;99.90;;;;;;5070003;28;20431;-85
2022/05/09 04:19:41;;;;;;;14.73;11.90;;;8.10;99.90;;;;;;5072864;28;20029;-85
2022/05/09 04:22:07;;;;;;;15.07;11.17;;;8.10;99.90;;;;;;5075971;28;20103;-85
2022/05/09 04:24:33;;;;;;;16.57;11.47;;;8.10;99.90;;;;;;5057568;28;20116;-85
2022/05/09 04:27:02;;;;;;;16.90;11.73;;;8.10;99.90;;;;;;5066221;28;20025;-85
2022/05/09 04:29:28;;;;;;;16.30;11.77;;;8.10;99.90;;;;;;5052662;28;20397;-85
2022/05/09 04:31:54;;;;;;;17.07;13.90;;;8.10;99.90;;;;;;5075510;28;20024;-85
2022/05/09 04:34:22;;;;;;;19.23;13.87;;;8.10;99.90;;;;;;5075449;28;20028;-85
2022/05/09 04:36:51;;;;;;;18.90;14.00;;;8.10;99.90;;;;;;5075390;28;20020;-85
2022/05/09 04:39:34;;;;;;;19.70;14.73;;;8.10;99.90;;;;;;5075330;28;20031;-85
2022/05/09 04:42:03;;;;;;;23.30;15.23;;;8.20;99.90;;;;;;5042970;28;20046;-85
2022/05/09 04:44:31;;;;;;;23.67;16.37;;;8.20;99.90;;;;;;5075445;28;20024;-85
2022/05/09 04:46:59;;;;;;;17.27;14.20;;;8.30;99.90;;;;;;5073102;28;20029;-85
2022/05/09 04:49:25;;;;;;;20.80;14.00;;;8.40;99.90;;;;;;5061962;28;20047;-85
2022/05/09 04:51:53;;;;;;;17.07;13.13;;;8.60;99.90;;;;;;5065900;28;20257;-85
2022/05/09 04:54:21;;;;;;;16.57;13.03;;;8.70;99.90;;;;;;5064969;28;20469;-85
2022/05/09 04:56:46;;;;;;;16.40;12.37;;;8.80;99.90;;;;;;5068798;28;20052;-85
2022/05/09 04:59:12;;;;;;;17.33;12.13;;;8.80;99.90;;;;;;5054187;28;20021;-85
2022/05/09 05:01:38;;;;;;;16.10;12.00;;;8.80;99.90;;;;;;5073488;28;20020;-79
2022/05/09 05:04:05;;;;;;;18.07;11.67;;;8.80;99.90;;;;;;5048639;28;20029;-79
2022/05/09 05:06:31;;;;;;;13.40;12.00;;;8.80;99.90;;;;;;5057819;28;20446;-79
2022/05/09 05:08:57;;;;;;;16.40;12.07;;;8.90;99.90;;;;;;5070986;28;20051;-78
2022/05/09 05:11:23;;;;;;;14.00;10.97;;;8.90;99.90;;;;;;5071693;28;20036;-78
2022/05/09 05:13:50;;;;;;;15.47;11.93;;;8.90;99.90;;;;;;5072843;28;20025;-75
2022/05/09 05:16:16;;;;;;;16.63;12.37;;;8.90;99.90;;;;;;5071690;28;20016;-81
2022/05/09 05:18:43;;;;;;;13.77;12.17;;;9.00;99.90;;;;;;5074530;28;20024;-81
2022/05/09 05:21:11;;;;;;;14.23;12.73;;;9.10;99.90;;;;;;5074561;28;20021;-82
2022/05/09 05:23:38;;;;;;;22.13;15.47;;;9.10;99.90;;;;;;5070712;28;20099;-82
2022/05/09 05:26:04;;;;;;;18.47;14.13;;;9.20;99.90;;;;;;5074802;28;20354;-82
2022/05/09 05:28:32;;;;;;;17.73;15.77;;;9.30;99.90;;;;;;5074432;28;20031;-84
2022/05/09 05:31:11;;;;;;;21.17;17.00;;;9.40;99.90;;;;;;5074187;28;20028;-84
2022/05/09 05:33:37;;;;;;;20.40;18.23;;;9.50;99.90;;;;;;5073792;28;20017;-84
2022/05/09 05:36:02;;;;;;;27.60;21.13;;;9.70;99.90;;;;;;5055986;28;20028;-84
2022/05/09 05:38:28;;;;;;;26.33;23.30;;;9.80;99.90;;;;;;5073383;28;20087;-84
2022/05/09 05:40:57;;;;;;;31.53;24.60;;;9.90;99.90;;;;;;5055695;28;20101;-84
2022/05/09 05:43:22;;;;;;;28.50;23.97;;;10.00;99.90;;;;;;5074194;28;20029;-84
2022/05/09 05:45:55;;;;;;;27.48;22.90;;;10.10;99.90;;;;;;5073576;28;20024;-84
2022/05/09 05:48:21;;;;;;;29.40;22.70;;;10.20;99.90;;;;;;5071197;28;20416;-78
2022/05/09 05:50:52;;;;;;;25.47;20.87;;;10.30;99.90;;;;;;5071490;28;20041;-84
2022/05/09 05:53:18;;;;;;;23.90;21.33;;;10.50;99.90;;;;;;5053930;28;20123;-84
2022/05/09 05:55:44;;;;;;;24.77;22.07;;;10.60;99.90;;;;;;5072221;28;20032;-84
2022/05/09 05:58:13;;;;;;;27.02;20.35;;;10.70;99.90;;;;;;5054086;28;20028;-84
2022/05/09 06:00:41;;;;;;;26.52;20.90;;;10.80;99.90;;;;;;5072113;28;20091;-81
2022/05/09 06:03:15;;;;;;;29.17;20.55;;;10.90;99.90;;;;;;5072561;28;20108;-82
2022/05/09 06:05:43;;;;;;;26.02;21.67;;;11.10;99.90;;;;;;5072976;28;20052;-82
2022/05/09 06:08:09;;;;;;;23.63;20.85;;;11.20;99.90;;;;;;5054844;28;20373;-82
2022/05/09 06:10:34;;;;;;;26.45;20.27;;;11.40;99.90;;;;;;5055637;28;20024;-81
2022/05/09 06:13:04;;;;;;;24.25;21.27;;;11.60;99.90;;;;;;5070804;28;20031;-82
2022/05/09 06:15:33;;;;;;;25.63;21.33;;;11.80;99.90;;;;;;5074155;28;20097;-81
2022/05/09 06:18:01;;;;;;;26.45;21.95;;;11.90;99.90;;;;;;5073104;28;20016;-81
2022/05/09 06:20:31;;;;;;;28.67;21.85;;;12.10;99.90;;;;;;5072799;28;20031;-82
2022/05/09 06:22:59;;;;;;;25.05;22.15;;;12.30;99.90;;;;;;5072212;28;20063;-81
2022/05/09 06:25:26;;;;;;;27.38;20.95;;;12.50;99.90;;;;;;5073035;28;20484;-81
2022/05/09 06:27:52;;;;;;;26.77;21.10;;;12.80;99.90;;;;;;5069970;28;20039;-81
2022/05/09 06:30:19;;;;;;;24.60;21.50;;;13.00;99.90;;;;;;5072358;28;20036;-84
2022/05/09 06:32:46;;;;;;;27.05;23.13;;;13.10;99.90;;;;;;5070897;28;20021;-84
2022/05/09 06:35:14;;;;;;;24.67;21.73;;;13.20;99.90;;;;;;5053097;28;20035;-84
2022/05/09 06:37:40;;;;;;;29.17;22.85;;;13.30;99.90;;;;;;5072000;28;20044;-87
2022/05/09 06:40:10;;;;;;;29.42;23.30;;;13.40;99.90;;;;;;5072449;28;20025;-84
2022/05/09 06:42:36;;;;;;;25.73;22.75;;;13.50;99.90;;;;;;5072843;28;20082;-84
2022/05/09 06:45:02;;;;;;;27.17;23.52;;;13.60;99.90;;;;;;5072819;28;20028;-83
2022/05/09 06:47:28;;;;;;;26.70;21.80;;;13.70;99.90;;;;;;5072507;28;20024;-84
2022/05/09 06:50:00;;;;;;;27.33;22.10;;;13.90;99.90;;;;;;5072508;28;20031;-83
2022/05/09 06:52:28;;;;;;;26.15;21.05;;;14.00;99.90;;;;;;5054564;28;20404;-84
2022/05/09 06:54:53;;;;;;;28.13;22.45;;;14.10;99.90;;;;;;5052957;28;20029;-84
2022/05/09 06:57:21;;;;;;;27.73;21.88;;;14.30;99.90;;;;;;5058678;28;20082;-84
2022/05/09 06:59:49;;;;;;;25.77;21.75;;;14.40;99.90;;;;;;5055161;28;20063;-81
2022/05/09 07:02:15;;;;;;;27.20;21.90;;;14.50;99.90;;;;;;5073290;28;20086;-81
2022/05/09 07:04:41;;;;;;;24.95;21.30;;;14.50;99.90;;;;;;5072562;28;20032;-77
2022/05/09 07:07:06;;;;;;;29.55;22.17;;;14.40;99.90;;;;;;5072049;28;20101;-77
2022/05/09 07:09:32;;;;;;;27.27;22.23;;;14.40;99.90;;;;;;5072630;28;20020;-84
2022/05/09 07:11:58;;;;;;;25.65;21.13;;;14.60;99.90;;;;;;5072923;28;20366;-84
2022/05/09 07:14:23;;;;;;;26.73;22.23;;;14.60;99.90;;;;;;5054767;28;20024;-84
2022/05/09 07:16:49;;;;;;;25.73;20.60;;;14.60;99.90;;;;;;5073003;28;20035;-83
2022/05/09 07:19:16;;;;;;;22.88;20.58;;;14.70;99.90;;;;;;5072829;28;20028;-83
2022/05/09 07:21:42;;;;;;;22.55;19.70;;;14.90;99.90;;;;;;5054547;28;20040;-84
2022/05/09 07:24:07;;;;;;;25.08;20.65;;;15.00;99.90;;;;;;5055583;28;20048;-83
2022/05/09 07:26:34;;;;;;;22.27;19.88;;;15.00;99.90;;;;;;5059037;28;20025;-83
2022/05/09 07:29:00;;;;;;;21.75;19.45;;;15.00;99.90;;;;;;5076340;28;20021;-84
2022/05/09 07:31:26;;;;;;;23.63;20.00;;;15.10;99.90;;;;;;5076746;28;20030;-83
2022/05/09 07:33:52;;;;;;;24.60;20.13;;;15.20;99.90;;;;;;5076862;28;20102;-83
2022/05/09 07:36:17;;;;;;;25.40;20.75;;;15.30;99.90;;;;;;5075579;28;20436;-84
2022/05/09 07:38:43;;;;;;;27.83;20.83;;;15.20;99.90;;;;;;5076337;28;20111;-84
2022/05/09 07:41:09;;;;;;;24.48;20.35;;;15.20;99.90;;;;;;5076248;28;20069;-83
2022/05/09 07:43:35;;;;;;;26.52;19.63;;;15.10;99.90;;;;;;5076766;28;20496;-83
2022/05/09 07:46:00;;;;;;;23.83;19.63;;;15.10;99.90;;;;;;5076741;28;20212;-83
2022/05/09 07:48:28;;;;;;;22.08;17.63;;;15.10;99.90;;;;;;5077726;28;20020;-83
2022/05/09 07:50:57;;;;;;;22.15;17.35;;;15.20;99.90;;;;;;5076898;28;20059;-83
2022/05/09 07:53:33;;;;;;;21.20;17.55;;;15.30;99.90;;;;;;5058569;28;20504;-83
2022/05/09 07:56:04;;;;;;;21.75;17.65;;;15.40;99.90;;;;;;5057827;28;20033;-83
2022/05/09 07:58:30;;;;;;;21.17;17.17;;;15.50;99.90;;;;;;5075545;28;20017;-83
2022/05/09 08:00:58;;;;;;;17.70;14.73;;;15.50;99.90;;;;;;5056210;28;20031;-83
2022/05/09 08:03:25;;;;;;;18.33;15.43;;;15.70;99.90;;;;;;5071278;28;20028;-84
2022/05/09 08:05:51;;;;;;;19.98;16.38;;;15.90;99.90;;;;;;5083533;28;20036;-84
2022/05/09 08:08:17;;;;;;;17.80;14.95;;;16.10;99.90;;;;;;5086655;28;20081;-79
2022/05/09 08:10:44;;;;;;;17.05;14.13;;;16.20;99.90;;;;;;5087268;28;20067;-79
2022/05/09 08:13:14;;;;;;;18.85;14.02;;;16.30;99.90;;;;;;5084997;28;20043;-79
2022/05/09 08:15:44;;;;;;;16.08;13.90;;;16.30;99.90;;;;;;5069344;28;20016;-79
2022/05/09 08:18:10;;;;;;;18.40;14.45;;;16.30;99.90;;;;;;5062980;28;20036;-79
2022/05/09 08:20:38;;;;;;;17.52;14.40;;;16.30;99.90;;;;;;5065454;28;20472;-79
2022/05/09 08:23:06;;;;;;;16.42;13.77;;;16.40;99.90;;;;;;5083234;28;20030;-79
2022/05/09 08:25:36;;;;;;;20.40;13.68;;;16.50;99.90;;;;;;5084853;28;20094;-79
2022/05/09 08:28:03;;;;;;;14.77;12.70;;;16.70;99.90;;;;;;5086988;28;20028;-79
2022/05/09 08:30:32;;;;;;;17.08;13.70;;;16.80;99.90;;;;;;5062441;28;20032;-79
2022/05/09 08:32:59;;;;;;;14.75;11.73;;;17.00;99.90;;;;;;5082642;28;20039;-79
2022/05/09 08:35:25;;;;;;;15.82;12.98;;;17.10;99.90;;;;;;5084576;28;20099;-79
2022/05/09 08:37:51;;;;;;;15.13;12.43;;;17.20;99.90;;;;;;5061819;28;20027;-81
2022/05/09 08:40:23;;;;;;;16.00;12.75;;;17.20;99.90;;;;;;5056969;28;20703;-81
2022/05/09 08:43:01;;;;;;;14.73;12.30;;;17.20;99.90;;;;;;5074185;28;20024;-80
2022/05/09 08:45:34;;;;;;;14.93;13.30;;;17.40;99.90;;;;;;5074603;28;20017;-80
2022/05/09 08:48:26;;;;;;;15.20;13.63;;;17.40;99.90;;;;;;5056623;28;20760;-80
2022/05/09 08:51:09;;;;;;;15.02;13.43;;;17.40;99.90;;;;;;5073833;28;20090;-80
2022/05/09 08:53:39;;;;;;;14.27;12.77;;;17.30;99.90;;;;;;5074305;28;20365;-80
2022/05/09 08:56:09;;;;;;;13.43;12.02;;;17.40;99.90;;;;;;5058327;28;20021;-81
2022/05/09 08:58:45;;;;;;;17.08;13.07;;;17.40;99.90;;;;;;5036490;28;20025;-80
2022/05/09 09:01:16;;;;;;;14.98;12.32;;;17.40;99.90;;;;;;5072008;28;20035;-80
2022/05/09 09:03:56;;;;;;;14.15;12.63;;;17.60;99.90;;;;;;5060390;28;20028;-80
2022/05/09 09:06:43;;;;;;;20.38;14.27;;;17.60;99.90;;;;;;5056144;28;20715;-80
2022/05/09 09:09:18;;;;;;;16.88;12.82;;;17.70;99.90;;;;;;5074696;28;20485;-86
2022/05/09 09:11:55;;;;;;;15.65;12.80;;;17.80;99.90;;;;;;5057605;28;20024;-87
2022/05/09 09:14:48;;;;;;;17.42;13.40;;;17.80;99.90;;;;;;5075554;28;20052;-86
2022/05/09 09:17:24;;;;;;;18.73;13.30;;;18.10;99.90;;;;;;5057055;28;20091;-87
2022/05/09 09:19:56;;;;;;;15.10;12.18;;;18.20;99.90;;;;;;5057385;28;20027;-86
2022/05/09 09:22:43;;;;;;;16.60;12.48;;;18.20;99.90;;;;;;5056988;28;20048;-86
2022/05/09 09:25:32;;;;;;;14.55;11.23;;;18.30;99.90;;;;;;5075200;28;20439;-87
2022/05/09 09:28:15;;;;;;;15.23;12.55;;;18.40;99.90;;;;;;5074794;28;20024;-86
2022/05/09 09:30:46;;;;;;;14.73;11.65;;;18.50;99.90;;;;;;5056713;28;20040;-87
2022/05/09 09:33:14;;;;;;;18.77;12.73;;;18.50;99.90;;;;;;5074568;28;20032;-86
2022/05/09 09:36:01;;;;;;;11.90;10.60;;;18.70;99.90;;;;;;5074686;28;20035;-86
2022/05/09 09:38:55;;;;;;;13.70;11.52;;;19.00;99.90;;;;;;5074675;28;20036;-87
2022/05/09 09:41:31;;;;;;;12.88;10.98;;;19.40;99.90;;;;;;5056812;28;20032;-87
2022/05/09 09:44:13;;;;;;;14.25;11.93;;;19.50;99.90;;;;;;5056807;28;20032;-88
2022/05/09 09:47:05;;;;;;;13.95;11.82;;;19.70;99.90;;;;;;5074817;28;20028;-87
2022/05/09 09:49:48;;;;;;;14.30;10.95;;;19.90;99.90;;;;;;5056755;28;20449;-87
2022/05/09 09:53:02;;;;;;;13.10;11.13;;;19.80;99.90;;;;;;5074564;28;20040;-90
2022/05/09 09:55:41;;;;;;;14.95;12.45;;;19.70;99.90;;;;;;5063065;28;20123;-80
2022/05/09 09:58:30;;;;;;;14.43;11.70;;;19.50;99.90;;;;;;5061492;28;20020;-79
2022/05/09 10:01:24;;;;;;;15.65;10.95;;;19.40;99.90;;;;;;5055392;28;20483;-80
2022/05/09 10:04:08;;;;;;;10.80;9.77;;;19.20;99.90;;;;;;5073664;28;20025;-80
2022/05/09 10:06:34;;;;;;;13.70;11.13;;;19.00;99.90;;;;;;5055687;28;20020;-80
2022/05/09 10:09:08;;;;;;;13.15;10.40;;;19.10;99.90;;;;;;5055300;28;20027;-80
2022/05/09 10:11:34;;;;;;;11.50;9.98;;;19.30;99.90;;;;;;5054809;28;20119;-80
2022/05/09 10:14:03;;;;;;;10.73;9.73;;;19.50;99.90;;;;;;5072627;28;20100;-80
2022/05/09 10:16:45;;;;;;;11.40;9.13;;;19.60;99.90;;;;;;5072898;28;20021;-80
2022/05/09 10:19:18;;;;;;;11.38;8.57;;;19.70;99.90;;;;;;5072424;28;20453;-79
2022/05/09 10:24:52;;;;;;;13.68;8.77;;;20.10;99.90;;;;;;5074058;28;20075;-80
2022/05/09 10:27:20;;;;;;;10.80;7.82;;;20.20;99.90;;;;;;5056121;28;20377;-80
2022/05/09 10:29:48;;;;;;;12.73;9.13;;;20.40;99.90;;;;;;5073332;28;20416;-80
2022/05/09 10:32:17;;;;;;;9.13;7.68;;;20.90;99.90;;;;;;5073698;28;20025;-80
2022/05/09 10:35:00;;;;;;;8.82;7.43;;;21.20;99.90;;;;;;5074629;28;20017;-80
2022/05/09 10:37:50;;;;;;;9.50;8.27;;;21.40;99.90;;;;;;5073317;28;20031;-80
2022/05/09 10:40:25;;;;;;;9.43;8.20;;;21.40;99.90;;;;;;5074393;28;20306;-80
2022/05/09 10:43:01;;;;;;;9.93;7.95;;;21.30;99.90;;;;;;5074474;28;20058;-79
2022/05/09 10:45:30;;;;;;;10.25;6.97;;;21.10;99.90;;;;;;5074282;28;20016;-80
2022/05/09 10:47:55;;;;;;;9.40;7.45;;;21.20;99.90;;;;;;5055276;28;20354;-80
2022/05/09 10:50:49;;;;;;;10.05;7.22;;;21.00;99.90;;;;;;5072769;28;20083;-80
2022/05/09 10:53:20;;;;;;;10.18;6.90;;;21.00;99.90;;;;;;5055096;28;20025;-84
2022/05/09 10:56:02;;;;;;;8.23;6.50;;;21.30;99.90;;;;;;5055125;28;20032;-84
2022/05/09 10:58:46;;;;;;;7.97;6.97;;;21.50;99.90;;;;;;5054558;28;20440;-84
2022/05/09 11:01:22;;;;;;;8.45;6.18;;;21.60;99.90;;;;;;5055151;28;20025;-84
2022/05/09 11:03:53;;;;;;;8.90;6.38;;;21.60;99.90;;;;;;5073059;28;20031;-84
2022/05/09 11:06:35;;;;;;;9.25;6.40;;;21.80;99.90;;;;;;5072922;28;20423;-84
2022/05/09 11:09:18;;;;;;;10.38;6.20;;;22.10;99.90;;;;;;5073295;28;20056;-84
2022/05/09 11:12:14;;;;;;;9.48;7.15;;;22.20;99.90;;;;;;5073940;28;20070;-84
2022/05/09 11:14:45;;;;;;;8.93;6.30;;;22.10;99.90;;;;;;5055628;28;20417;-84
2022/05/09 11:17:38;;;;;;;7.38;6.25;;;22.10;99.90;;;;;;5073469;28;20035;-84
2022/05/09 11:20:15;;;;;;;7.30;5.85;;;22.30;99.90;;;;;;5074126;28;20028;-84
2022/05/09 11:23:16;;;;;;;10.95;6.53;;;22.60;99.90;;;;;;5074653;28;20492;-84
2022/05/09 11:26:24;;;;;;;8.98;6.40;;;22.80;99.90;;;;;;5074869;28;20519;-85
2022/05/09 11:29:13;;;;;;;10.05;6.50;;;23.00;99.90;;;;;;5074129;28;20016;-83
2022/05/09 11:31:59;;;;;;;8.60;6.15;;;23.60;99.90;;;;;;5052950;28;20056;-85
2022/05/09 11:35:04;;;;;;;7.60;6.80;;;24.10;99.90;;;;;;5052886;28;20470;-84
2022/05/09 11:37:51;;;;;;;6.57;5.57;;;23.90;99.90;;;;;;5025493;28;20043;-84
2022/05/09 11:40:21;;;;;;;6.60;5.82;;;23.50;99.90;;;;;;5057280;28;20020;-84
2022/05/09 11:43:31;;;;;;;9.45;6.88;;;23.50;99.90;;;;;;5093131;28;20020;-84
2022/05/09 11:46:06;;;;;;;12.55;6.70;;;23.50;99.90;;;;;;5069126;28;20027;-84
2022/05/09 11:49:03;;;;;;;6.32;5.65;;;22.90;99.90;;;;;;5072472;28;20032;-84
2022/05/09 11:51:43;;;;;;;9.15;6.45;;;22.70;99.90;;;;;;5072326;28;20040;-84
2022/05/09 11:54:37;;;;;;;8.18;6.45;;;22.90;99.90;;;;;;5034614;28;20156;-84
2022/05/09 11:57:07;;;;;;;8.85;6.45;;;22.90;99.90;;;;;;5066366;28;20618;-84
2022/05/09 11:59:35;;;;;;;8.43;5.95;;;23.10;99.90;;;;;;5072446;28;20351;-84
2022/05/09 12:02:15;;;;;;;6.78;4.90;;;23.10;99.90;;;;;;5071926;28;20504;-88
2022/05/09 12:04:44;;;;;;;7.95;5.20;;;23.30;99.90;;;;;;5071968;28;20047;-91
2022/05/09 12:07:22;;;;;;;8.02;5.40;;;23.30;99.90;;;;;;5055589;28;20025;-92
2022/05/09 12:10:15;;;;;;;8.07;5.90;;;23.30;99.90;;;;;;5074416;28;20021;-91
2022/05/09 12:12:55;;;;;;;8.20;5.03;;;23.60;99.90;;;;;;5077712;28;20052;-93
2022/05/09 12:15:23;;;;;;;8.00;5.13;;;24.00;99.90;;;;;;5079142;28;20317;-91
2022/05/09 12:18:00;;;;;;;7.43;5.32;;;24.20;99.90;;;;;;5060538;28;20020;-91
2022/05/09 12:20:29;;;;;;;9.40;5.60;;;24.50;99.90;;;;;;5059514;28;20017;-92
2022/05/09 12:22:59;;;;;;;8.52;6.50;;;25.10;99.90;;;;;;5058652;28;20052;-92
2022/05/09 12:25:34;;;;;;;6.90;5.20;;;25.20;99.90;;;;;;5076104;28;20072;-93
2022/05/09 12:28:19;;;;;;;5.65;5.10;;;25.30;99.90;;;;;;5058451;28;20025;-92
2022/05/09 12:31:23;;;;;;;10.50;5.32;;;25.30;99.90;;;;;;5058475;28;20044;-92
2022/05/09 12:33:51;;;;;;;7.55;5.20;;;25.20;99.90;;;;;;5058688;28;20024;-91
2022/05/09 12:36:23;;;;;;;7.38;4.70;;;25.10;99.90;;;;;;5077740;28;20432;-90
2022/05/09 12:39:02;;;;;;;49.22;41.88;;;25.10;98.70;;;;;;5061904;28;20107;-92
2022/05/09 12:41:55;;;;;;;12.10;10.68;;;25.00;99.90;;;;;;5059460;28;20035;-92
2022/05/09 12:44:48;;;;;;;9.07;7.63;;;25.20;99.90;;;;;;5058492;28;20111;-88
2022/05/09 12:47:26;;;;;;;7.70;5.28;;;25.60;97.40;;;;;;5036889;28;20548;-88
2022/05/09 12:50:21;;;;;;;13.98;12.52;;;25.90;99.70;;;;;;5053384;28;20116;-89
2022/05/09 12:52:59;;;;;;;9.20;6.38;;;26.10;99.90;;;;;;5037546;28;20580;-88
2022/05/09 12:58:34;;;;;;;7.22;4.20;;;26.00;98.40;;;;;;5059721;28;20042;-90
2022/05/09 13:01:06;;;;;;;7.20;4.70;;;26.00;94.90;;;;;;5056756;28;20047;-90
2022/05/09 13:04:03;;;;;;;5.32;4.30;;;26.00;95.70;;;;;;5058242;28;20035;-89
2022/05/09 13:06:34;;;;;;;7.88;4.18;;;25.80;94.80;;;;;;5067678;28;20191;-89
2022/05/09 13:09:15;;;;;;;7.60;5.13;;;25.20;95.90;;;;;;5057214;28;20492;-89